Main page
METAR-TAF:

METAR-TAF

Airports :

Moi International Airport

Mombasa, Kenya

latitude: 04-02S, longitude: 039-37E, elevation: 57 m

Current weather observation

The report was made 4 hours and 49 minutes ago, at 21:00 UTC
Wind 4 kt from the Southwest
Temperature 23°C
Humidity 83%
Pressure 1016 hPa
Visibility 10 km or more
Few clouds at a height of 2400 ft

METAR: HKMO 192100Z 23004KT 9999 FEW024 23/20 Q1016 NOSIG

Time: 04:49 (01:49 UTC)

Forecast

The report was made 2 hours and 49 minutes ago, at 23:00 UTC
Forecast valid from 20 at 00 UTC to 21 at 06 UTC
Wind 5 kt from the West/Southwest
Visibility 10 km or more
Broken clouds at a height of 1900 ft
Becoming
from 20 at 09 UTC to 20 at 12 UTC
Wind 10 kt from the South/Southeast
Scattered clouds at a height of 2500 ft
Becoming
from 21 at 00 UTC to 21 at 03 UTC
Wind 5 kt from the Southwest
Scattered clouds at a height of 2000 ft

TAF: HKMO 192300Z 2000/2106 24005KT 9999 BKN019 BECMG 2009/2012 16010KT SCT025 BECMG 2100/2103 22005KT SCT020

Weather observations and forecasts of more than 4000 airports (METAR and TAF reports).

The available stations are represented by yellow and red dots on the map.

Hover mouse over dot to see the name of the station.

Then click to see weather observations and forecasts.

To change the map : click on the green buttons with a black cross to zoom in, on the green button with a dash to zoom out, or on the green arrows for adjacent maps.


METAR-TAF: